White Mountain Summit Weather observations

Data are for 10 minute period ending at time listed.
 Day   Time   Solar   Ave.   Ave.  Ave.  Vector    Max.    Baro.  
  of    of     Rad.   Air    Rel.  Wind   Wind     Wind   Press.  
Year   Day            Temp.  Hum.  Speed  Dir.     Gust           
2015   (PST)   W/m2    F      %     mph   deg.      mph     mb.   
-------------------------------------------------------------------
 186   16:10  753.0    40   85.3    10    332.5    18.8   999.0 
 186   16:20    0.0    40   82.5     6    355.9     9.4   999.0 
 186   16:30    0.0    40   81.0     8    288.9    21.2   999.0 
 186   16:40    0.0    39   73.9    13    277.0    18.8   999.0 
 186   16:50    0.0    40   74.0     8    286.1    14.1   999.0 
 186   17:00    0.0    40   73.1    10    279.3    16.5   999.0 
 186   17:10    0.0    40   73.5    17    273.6    23.5   999.0 
 186   17:20    0.0    40   70.7    10    292.0    18.8   999.0 
 186   17:30    0.0    40   67.5     7    292.9    11.8   999.0 
 186   17:40    0.0    41   65.7     9    279.2    14.1   999.0 
 186   17:50    0.0    40   66.1    10    272.1    14.1   999.0 
 186   18:00    0.0    40   66.7     9    274.8    14.1   999.0 
 186   18:10    0.0    40   67.5    10    276.5    14.1   999.0 
 186   18:20    0.0    40   69.2     3     16.5     7.1   999.0 
 186   18:30    0.0    40   69.4     2    264.0     7.1   999.0 
 186   18:40    0.0    40   70.3     9    280.4    16.5   999.0 
 186   18:50    0.0    39   71.4     8    319.7    11.8   999.0 
 186   19:00    0.0    40   68.0     3     20.0     9.4   999.0 
 186   19:10    0.0    39   65.6     4    233.8     9.4   999.0 
 186   19:20    0.0    39   66.3    10    256.5    14.1   999.0 
 186   19:30    0.0    38   68.8    10    239.7    16.5   999.0 
 186   19:40    0.0    38   69.5    13    266.2    18.8   999.0 
 186   19:50  226.0    38   70.0     6    277.6    11.8   999.0 
 186   20:00  248.0    38   69.0     2    286.9     4.7   999.0 
 186   20:10  261.0    38   69.8     1    228.6     7.1   999.0 
 186   20:20  262.0    38   68.1     9    271.3    11.8   999.0 
 186   20:30  230.0    38   68.4     8    272.0    11.8   999.0 
 186   20:40  181.0    38   68.4     5    266.3     7.1   999.0 
 186   20:50  165.0    38   69.1     4    267.6     7.1   999.0 
 186   21:00  174.0    38   69.0     1    276.5     4.7   999.0 
 186   21:10  128.0    38   69.7     0      0.0     0.0   999.0 
 186   21:20   75.0    38   69.4     0     33.9     2.4   999.0 
 186   21:30   98.0    38   68.3     4     98.8     9.4   999.0 
 186   21:40   97.0    37   68.7    12    109.5    16.5   999.0 
 186   21:50  104.0    37   70.8    10     94.0    14.1   999.0 
 186   22:00  106.0    36   71.8     7     82.5    11.8   999.0 
 186   22:10  104.0    36   71.3     9     83.0    11.8   999.0 
 186   22:20  121.0    36   71.8    10     77.0    14.1   999.0 
 186   22:30  118.0    36   71.9     9     80.6    11.8   999.0 
 186   22:40  131.0    36   69.7    11     89.7    16.5   999.0 
 186   22:50  138.0    36   69.0     9     84.5    11.8   999.0 
 186   23:00  142.0    36   67.9     8     83.9    11.8   999.0 
 186   23:10  144.0    36   68.9     9     77.8    11.8   999.0 
 186   23:20  159.0    35   67.8     9     80.5    14.1   999.0 
 186   23:30  163.0    35   67.5    10     77.4    11.8   999.0 
 186   23:40  168.0    35   67.5    10     80.6    11.8   999.0 
 186   23:50  172.0    35   67.7     9     75.2    11.8   999.0 
 187    0:00  172.0    35   67.6    11     72.1    14.1   999.0 
 187    0:10  182.0    35   68.3     9     67.1    14.1   999.0 
 187    0:20  181.0    35   68.0    10     72.7    11.8   999.0 
 187    0:30  176.0    35   69.3    11     91.2    18.8   999.0 
 187    0:40  175.0    35   70.2    10     87.4    16.5   999.0 
 187    0:50  169.0    35   71.8    11     88.5    16.5   999.0 
 187    1:00  170.0    35   72.5    10     92.2    18.8   999.0 
 187    1:10  167.0    35   71.2     7     84.0    11.8   999.0 
 187    1:20  175.0    35   69.2     6     97.6    11.8   999.0 
 187    1:30  185.0    36   65.8    10    107.7    14.1   999.0 
 187    1:40  186.0    35   65.3    17    125.8    21.2   999.0 
 187    1:50  185.0    35   65.7    18    132.5    21.2   999.0 
 187    2:00  172.0    35   64.6    19    137.0    21.2   999.0 
 187    2:10  168.0    35   65.0    20    136.1    21.2   999.0 
 187    2:20  175.0    35   64.2    20    123.6    21.2   999.0 
 187    2:30  178.0    35   63.6    20    121.7    23.5   999.0 
 187    2:40  170.0    35   64.3    21    124.8    23.5   999.0 
 187    2:50  168.0    35   65.2    22    125.6    23.5   999.0 
 187    3:00  171.0    35   64.4    21    132.8    25.9   999.0 
 187    3:10  163.0    35   65.2    24    132.9    28.2   999.0 
 187    3:20  167.0    35   64.7    24    137.4    28.2   999.0 
 187    3:30  174.0    35   65.4    20    137.4    25.9   999.0 
 187    3:40  171.0    34   67.2    16    143.6    18.8   999.0 
 187    3:50  167.0    34   69.1    19    149.1    23.5   999.0 
 187    4:00  166.0    34   69.8    18    154.7    21.2   999.0 
 187    4:10  157.0    34   71.8    19    153.6    21.2   999.0 
 187    4:20  155.0    34   74.2    16    165.8    18.8   999.0 
 187    4:30  139.0    34   77.4    13    169.6    18.8   999.0 
 187    4:40  158.0    34   78.3    14    163.5    18.8   999.0 
 187    4:50  145.0    34   77.5    13    174.1    16.5   999.0 
 187    5:00   97.0    34   74.8    11    185.9    16.5   999.0 
 187    5:10  153.0    34   79.2    10    195.5    14.1   999.0 
 187    5:20  165.0    34   79.7    10    188.3    14.1   999.0 
 187    5:30  186.0    34   78.9    12    176.1    18.8   999.0 
 187    5:40  201.0    34   77.8    15    187.8    18.8   999.0 
 187    5:50  205.0    34   76.5    14    203.8    18.8   999.0 
 187    6:00  202.0    34   75.4    11    218.5    14.1   999.0 
 187    6:10  207.0    34   75.4    12    208.3    16.5   999.0 
 187    6:20  203.0    34   75.5    12    212.3    21.2   999.0 
 187    6:30  192.0    34   75.4    13    205.7    18.8   999.0 
 187    6:40  193.0    34   75.8    14    198.7    18.8   999.0 
 187    6:50  197.0    35   76.4    13    204.2    18.8   999.0 
 187    7:00  186.0    35   75.9    12    208.1    16.5   999.0 
 187    7:10  136.0    35   75.7    12    215.0    16.5   999.0 
 187    7:20   92.0    35   74.5    11    220.8    14.1   999.0 
 187    7:30  113.0    36   72.9    10    224.9    16.5   999.0 
 187    7:40  115.0    36   72.0     8    218.9    14.1   999.0 
 187    7:50   45.0    36   70.2     8    206.8    11.8   999.0 
 187    8:00   92.0    36   70.3     9    221.5    16.5   999.0 
 187    8:10  113.0    37   69.2     9    231.8    14.1   999.0 
 187    8:20  115.0    37   68.4     7    222.5    11.8   999.0 
 187    8:30  181.0    37   67.6     8    219.6    11.8   999.0 
 187    8:40  218.0    38   67.6     9    225.7    11.8   999.0 
 187    8:50  230.0    38   66.2     8    223.4    11.8   999.0 
 187    9:00  239.0    38   65.6     8    212.9    11.8   999.0 
 187    9:10  252.0    39   66.5     7    223.5    11.8   999.0 
 187    9:20  268.0    39   65.9     6    218.7     9.4   999.0 
 187    9:30  259.0    39   66.8     8    234.0    11.8   999.0 
 187    9:40  272.0    40   68.7     6    222.8     9.4   999.0 
 187    9:50  271.0    40   68.0     6    212.9     9.4   999.0 
 187   10:00  255.0    41   67.6     6    224.8     9.4   999.0 
 187   10:10  234.0    42   67.2     7    232.9    11.8   999.0 
 187   10:20  251.0    42   67.4     7    224.0     9.4   999.0 
 187   10:30  251.0    43   66.9     9    249.7    14.1   999.0 
 187   10:40  259.0    44   65.2     8    250.7    14.1   999.0 
 187   10:50  261.0    44   65.0     9    246.6    14.1   999.0 
 187   11:00  256.0    44   63.5    10    244.1    14.1   999.0 
 187   11:10  256.0    44   63.0    11    257.6    18.8   999.0 
 187   11:20  281.0    45   61.9    12    255.5    21.2   999.0 
 187   11:30  273.0    46   60.2    13    260.2    21.2   999.0 
 187   11:40  266.0    46   58.9    11    254.9    18.8   999.0 
 187   11:50  264.0    48   55.2    14    256.9    23.5   999.0 
 187   12:00  263.0    48   52.9    14    262.9    23.5   999.0 
 187   12:10  257.0    48   51.5    14    259.9    21.2   999.0 
 187   12:20  265.0    49   48.8    16    258.9    25.9   999.0 
 187   12:30  244.0    49   48.3    17    267.9    25.9   999.0 
 187   12:40  273.0    49   48.4    15    266.2    23.5   999.0 
 187   12:50  277.0    50   48.7    16    263.2    21.2   999.0 
 187   13:00  244.0    49   49.8    18    265.9    25.9   999.0 
 187   13:10  220.0    48   51.4    18    264.9    25.9   999.0 
 187   13:20  247.0    49   50.5    25    266.0    33.0   999.0 
 187   13:30  250.0    49   49.9    20    268.0    33.0   999.0 
 187   13:40  273.0    49   48.3    18    262.1    25.9   999.0 
 187   13:50  284.0    49   47.9    15    269.0    23.5   999.0 
 187   14:00  278.0    50   44.4    22    266.2    30.6   999.0 
 187   14:10  600.0    50   43.4    22    266.9    33.0   999.0 
 187   14:20  819.0    50   44.9    22    266.2    33.0   999.0 
 187   14:30  1819.0    49   46.0    23    265.5    37.7   999.0 
 187   14:40  2865.0    48   47.5    23    268.7    33.0   999.0 
 187   14:50  3544.0    47   50.8    27    269.6    42.4   999.0 
 187   15:00  999.0    47   52.2    30    266.2    40.0   999.0 
 187   15:10  1787.0    46   54.7    36    267.2    44.7   999.0 
 187   15:20  2887.0    45   58.1    36    267.9    49.4   999.0 
 187   15:30  999.0    44   60.9    38    267.2    49.4   999.0 
 187   15:40  3616.0    44   62.0    26    267.6    40.0   999.0 
 187   15:50  4348.0    42   64.7    21    262.8    30.6   999.0 
 187   16:00  999.0    41   69.6    14    242.2    21.2   999.0 

Return to White Mountain graphs page.


Western Regional Climate Center,wrcc@dri.edu